LTAC Airport Information

Runway Information
Runway 03L Length 12303 ft width 148 ft
Elevation 3100 ft Threshold 1148 ft Heading 36
Runway 21R Length 12303 ft Width 148 ft
Elevation 3123 ft Threshold 0 ft Heading 216
Runway 03R Length 12303 ft width 197 ft
Elevation 3097 ft Threshold 0 ft Heading 35
Runway 21L Length 12303 ft Width 197 ft
Elevation 3125 ft Threshold 0 ft Heading 215
Airport Frequencies
Type APP Name APP Frequency 119.1 MHZ
Type ATIS Name ATIS Frequency 123.6 MHZ
Type GND Name GND Frequency 121.9 MHZ
Type TWR Name TWR Frequency 118.1 MHZ
Airport Navaids
Type VOR-DME Name Cubuk Frequency 114300 KHZ
Airport Weather Information & NOTAM
ADDS - METARS form results

(0442 UTC 19 June 2019)
Data provider http://aviationweather.gov/metar/data/
 
METAR text: LTAC 190420Z VRB02KT 9999 FEW040 SCT100 18/13 Q1014 NOSIG RMK RWY21L VRB01KT RWY03L VRB02KT RWY21R 29002KT
Conditions at: LTAC (ANKARA/ESENBOGA , TR) observed 0420 UTC 19 June 2019
Temperature: 18.0°C (64°F)
Dewpoint: 13.0°C (55°F) [RH = 73%]
Pressure (altimeter): 29.94 inches Hg (1014.0 mb)
Winds: variable direction winds at 2 MPH (2 knots; 1.0 m/s)
Visibility: 6 or more miles (10+ km)
Ceiling: at least 12,000 feet AGL
Clouds: few clouds at 4000 feet AGL
scattered clouds at 10000 feet AGL
Weather: no significant weather observed at this time

METAR text: LTAC 190350Z VRB02KT 9999 SCT040 SCT100 16/14 Q1014 NOSIG RMK RWY21L VRB01KT RWY03L VRB01KT RWY21R 00000KT
Conditions at: LTAC (ANKARA/ESENBOGA , TR) observed 0350 UTC 19 June 2019
Temperature: 16.0°C (61°F)
Dewpoint: 14.0°C (57°F) [RH = 88%]
Pressure (altimeter): 29.94 inches Hg (1014.0 mb)
Winds: variable direction winds at 2 MPH (2 knots; 1.0 m/s)
Visibility: 6 or more miles (10+ km)
Ceiling: at least 12,000 feet AGL
Clouds: scattered clouds at 4000 feet AGL
scattered clouds at 10000 feet AGL
Weather: no significant weather observed at this time

Forecast for: LTAC (ANKARA/ESENBOGA , TR)
Text: TAF LTAC 182240Z 1900/1924 VRB02KT 9999 SCT040
Forecast period: 0000 UTC 19 June 2019 to 0000 UTC 20 June 2019
Forecast type: FROM: standard forecast or significant change
Winds: variable direction winds at 2 MPH (2 knots; 1.0 m/s)
Visibility: 6 or more miles 10+ km)
Ceiling: at least 12,000 feet AGL
Clouds: scattered clouds at 4000 feet AGL
Weather: no significant weather forecast for this period
Text: TEMPO 1914/1918 06015G25KT -TSRA SCT025CB BKN030
Forecast period: 1400 to 1800 UTC 19 June 2019
Forecast type: TEMPORARY: The following changes expected for less than half the time period
Winds: from the ENE (60 degrees) at 17 MPH (15 knots; 7.7 m/s)
gusting to 29 MPH (25 knots; 12.9 m/s)
Visibility: missing
Ceiling: 3000 feet AGL
Clouds: scattered clouds at 2500 feet AGL
broken clouds at 3000 feet AGL
Weather: -TSRA  (light rain associated with thunderstorm(s))